createdAt,value
2022-09-06T02:06:25.633Z,94.60
2022-09-06T02:09:08.525Z,94.40
2022-09-06T02:11:51.562Z,94.10
2022-09-06T02:14:26.664Z,94.00
2022-09-06T02:16:58.049Z,93.90
2022-09-06T02:19:46.101Z,93.90
2022-09-06T02:22:20.322Z,93.70
2022-09-06T02:24:53.435Z,93.90
2022-09-06T02:27:22.949Z,93.60
2022-09-06T02:29:53.282Z,93.40
2022-09-06T02:32:26.178Z,93.40
2022-09-06T02:34:58.729Z,93.50
2022-09-06T02:37:28.529Z,93.50
2022-09-06T02:39:58.715Z,93.30
2022-09-06T02:42:28.909Z,93.40
2022-09-06T02:44:58.468Z,93.30
2022-09-06T02:47:27.928Z,93.30
2022-09-06T02:49:57.209Z,93.30
2022-09-06T02:52:26.509Z,93.30
2022-09-06T02:54:56.252Z,93.30
2022-09-06T02:57:25.559Z,93.20
2022-09-06T02:59:54.858Z,93.10
2022-09-06T03:02:24.217Z,93.00
2022-09-06T03:04:53.693Z,93.00
2022-09-06T03:07:23.078Z,92.90
2022-09-06T05:44:40.263Z,87.00
2022-09-06T05:47:09.659Z,87.30
2022-09-06T05:49:38.969Z,87.00
2022-09-06T05:52:08.269Z,86.60
2022-09-06T05:54:37.568Z,86.00
2022-09-06T05:57:06.932Z,85.60
2022-09-06T05:59:36.420Z,83.90
2022-09-06T06:02:07.508Z,85.20
2022-09-06T06:04:37.450Z,84.80
2022-09-06T06:07:06.956Z,85.00
2022-09-06T06:09:36.276Z,84.30
2022-09-06T06:12:05.966Z,85.00
2022-09-06T06:14:35.596Z,85.10
2022-09-06T06:17:05.303Z,83.90
2022-09-06T06:19:34.635Z,84.30
2022-09-06T06:22:04.073Z,84.10
2022-09-06T06:24:33.376Z,84.10
2022-09-06T06:27:02.663Z,84.80
2022-09-06T06:29:32.068Z,84.70
2022-09-06T06:32:01.502Z,83.40
2022-09-06T06:34:31.004Z,82.50
2022-09-06T06:37:00.862Z,83.00
2022-09-06T06:39:30.397Z,82.80
2022-09-06T06:41:59.668Z,82.90
2022-09-06T06:44:29.523Z,83.10
2022-09-06T06:46:59.913Z,82.90
2022-09-06T06:49:29.591Z,82.90
2022-09-06T06:51:58.945Z,82.50
2022-09-06T06:54:28.370Z,82.30
2022-09-06T06:56:57.751Z,82.30
2022-09-06T06:59:27.071Z,81.70
2022-09-06T07:01:56.481Z,82.20
2022-09-06T07:04:25.907Z,81.90
2022-09-06T07:12:37.797Z,81.00
2022-09-06T07:15:07.566Z,81.40
2022-09-06T07:17:36.777Z,82.30
2022-09-06T07:20:13.750Z,81.90
2022-09-06T07:25:46.334Z,81.00
2022-09-06T07:28:15.522Z,80.60
2022-09-06T07:30:44.869Z,78.50
2022-09-06T07:33:14.385Z,80.90
2022-09-06T07:35:44.399Z,81.20
2022-09-06T07:38:13.498Z,81.00
2022-09-06T07:40:42.525Z,81.30
2022-09-06T07:43:11.564Z,81.00
2022-09-06T07:45:40.629Z,81.60
2022-09-06T07:48:09.617Z,81.60
2022-09-06T07:53:16.761Z,81.20
2022-09-06T07:55:50.930Z,81.50
2022-09-06T07:58:20.120Z,81.40
2022-09-06T08:00:49.240Z,81.60
2022-09-06T08:03:21.267Z,81.60
2022-09-06T08:06:09.146Z,81.50
2022-09-06T08:11:31.122Z,81.30
2022-09-06T08:14:02.218Z,81.20
2022-09-06T08:16:33.152Z,81.00
2022-09-06T08:19:06.105Z,81.00
2022-09-06T08:21:36.478Z,80.80
2022-09-06T08:24:08.168Z,81.00
2022-09-06T08:26:43.554Z,80.70
2022-09-06T08:29:14.129Z,80.50
2022-09-06T08:31:46.437Z,80.40
2022-09-06T08:34:16.329Z,80.60
2022-09-06T08:36:47.091Z,80.60
2022-09-06T08:39:18.094Z,80.60
2022-09-06T08:42:04.852Z,80.50
2022-09-06T08:45:01.287Z,80.80
2022-09-06T08:47:30.742Z,79.80
2022-09-06T08:50:07.081Z,80.50
2022-09-06T08:56:23.790Z,80.20
2022-09-06T08:59:09.460Z,78.80
2022-09-06T09:02:06.489Z,80.30
2022-09-06T09:04:38.433Z,79.50
2022-09-06T09:07:41.882Z,79.80
2022-09-06T09:10:42.673Z,78.60
2022-09-06T09:13:38.555Z,79.30
2022-09-06T09:16:08.775Z,79.10
2022-09-06T09:18:45.403Z,79.40
2022-09-06T09:21:15.488Z,79.90
2022-09-06T09:23:46.465Z,79.50
2022-09-06T09:26:16.880Z,79.80
2022-09-06T09:29:06.767Z,79.50
2022-09-06T09:31:38.792Z,78.40
2022-09-06T09:34:12.482Z,79.30
2022-09-06T09:39:38.460Z,79.90
2022-09-06T09:42:10.583Z,78.90
2022-09-06T09:44:46.903Z,78.10
2022-09-06T09:47:35.811Z,77.10
2022-09-06T09:50:28.798Z,77.20
2022-09-06T09:53:08.321Z,76.60
2022-09-06T09:55:38.082Z,78.20
2022-09-06T09:58:08.737Z,78.80
2022-09-06T10:00:44.433Z,78.30
2022-09-06T10:03:29.670Z,78.50
2022-09-06T10:06:03.227Z,77.60
2022-09-06T10:08:35.621Z,78.20
2022-09-06T10:11:05.932Z,78.10
2022-09-06T10:13:35.409Z,77.70
2022-09-06T10:16:04.973Z,78.80
2022-09-06T10:18:35.364Z,78.80
2022-09-06T10:21:11.618Z,78.50
2022-09-06T10:26:57.738Z,78.50
2022-09-06T10:29:44.949Z,77.30
2022-09-06T10:33:18.135Z,78.00
2022-09-06T10:35:47.195Z,77.30
2022-09-06T10:38:16.254Z,78.90
2022-09-06T10:40:48.529Z,78.90
2022-09-06T10:43:21.294Z,78.80
2022-09-06T10:45:59.431Z,79.10
2022-09-06T10:48:42.249Z,79.20
2022-09-06T10:51:46.815Z,79.40
2022-09-06T10:54:19.220Z,78.90
2022-09-06T11:00:14.156Z,79.50
2022-09-06T11:06:12.599Z,80.00
2022-09-06T11:09:18.305Z,80.30
2022-09-06T11:12:02.924Z,79.70
2022-09-06T11:14:32.967Z,80.20
2022-09-06T11:17:24.688Z,81.00
2022-09-06T11:20:09.122Z,80.10
2022-09-06T11:22:45.559Z,80.40
2022-09-06T11:25:36.320Z,80.40
2022-09-06T11:28:10.043Z,80.30
2022-09-06T11:30:38.971Z,80.60
2022-09-06T11:33:32.001Z,79.70
2022-09-06T11:36:33.417Z,80.70
2022-09-06T11:39:04.352Z,80.80
2022-09-06T11:41:42.155Z,81.10
2022-09-06T11:44:12.885Z,81.20
2022-09-06T11:46:45.100Z,81.10
2022-09-06T11:49:17.389Z,81.20
2022-09-06T11:51:48.066Z,81.20
2022-09-06T11:54:17.311Z,81.20
2022-09-06T11:57:05.325Z,80.90
2022-09-06T11:59:44.421Z,81.20
2022-09-06T12:02:43.309Z,80.90
2022-09-06T12:05:35.212Z,80.50
2022-09-06T12:08:45.880Z,81.00
2022-09-06T12:11:38.637Z,80.80
2022-09-06T12:14:31.582Z,80.50
2022-09-06T12:17:06.164Z,80.60
2022-09-06T12:20:07.950Z,81.00
2022-09-06T12:22:43.375Z,80.60
2022-09-06T12:25:44.374Z,81.20
2022-09-06T12:28:47.556Z,80.80
2022-09-06T12:31:33.142Z,81.30
2022-09-06T12:34:10.144Z,80.80
2022-09-06T12:37:11.969Z,80.80
2022-09-06T12:39:41.450Z,80.90
2022-09-06T12:42:15.282Z,81.20
2022-09-06T12:44:46.002Z,81.20
2022-09-06T12:47:27.954Z,80.30
2022-09-06T12:50:26.398Z,81.30
2022-09-06T12:52:59.247Z,81.10
2022-09-06T12:55:37.534Z,81.50
2022-09-06T12:58:09.502Z,81.50
2022-09-06T13:00:52.723Z,81.80
2022-09-06T13:03:39.071Z,81.80
2022-09-06T13:06:10.022Z,81.70
2022-09-06T13:08:49.955Z,82.00
2022-09-06T13:11:30.611Z,82.00
2022-09-06T13:14:00.285Z,82.20
2022-09-06T13:16:35.194Z,82.30
2022-09-06T13:19:31.117Z,82.40
2022-09-06T13:22:01.539Z,82.50
2022-09-06T13:24:46.525Z,82.80
2022-09-06T13:27:26.453Z,82.80
2022-09-06T13:30:05.258Z,82.90
2022-09-06T13:32:35.518Z,82.80
2022-09-06T13:35:05.542Z,83.10
2022-09-06T13:37:37.355Z,83.30
2022-09-06T13:43:41.360Z,83.60
2022-09-06T13:46:12.881Z,83.80
2022-09-06T13:48:42.739Z,84.00
2022-09-06T13:51:12.425Z,84.00
2022-09-06T13:53:41.664Z,84.10
2022-09-06T13:56:10.802Z,84.20
2022-09-06T13:58:40.270Z,84.40
2022-09-06T14:01:11.069Z,84.50
2022-09-06T14:03:43.532Z,84.50
2022-09-06T14:06:13.109Z,84.60
2022-09-06T14:09:06.991Z,84.70
2022-09-06T14:11:31.471Z,84.90
2022-09-06T14:14:00.975Z,85.00
2022-09-06T14:16:31.646Z,85.20
2022-09-06T14:19:01.425Z,85.20
2022-09-06T14:21:30.521Z,85.30
2022-09-06T14:24:04.081Z,85.40
2022-09-06T14:26:34.321Z,85.40
2022-09-06T14:29:03.465Z,85.40
2022-09-06T14:31:35.299Z,85.50
2022-09-06T14:34:05.146Z,85.60
2022-09-06T14:36:35.710Z,85.70
2022-09-06T14:39:05.546Z,85.70
2022-09-06T14:41:34.964Z,85.90
2022-09-06T14:44:04.245Z,86.10
2022-09-06T14:46:33.383Z,86.30
2022-09-06T14:49:05.129Z,86.40
2022-09-06T14:51:34.266Z,86.50
2022-09-06T14:54:08.805Z,86.80
2022-09-06T14:56:40.732Z,86.90
2022-09-06T14:59:10.289Z,87.00
2022-09-06T15:01:40.258Z,87.00
2022-09-06T15:04:12.847Z,87.30
2022-09-06T15:06:45.988Z,87.30
2022-09-06T15:09:18.831Z,87.40
2022-09-06T15:11:53.352Z,87.40
2022-09-06T15:14:28.098Z,87.60
2022-09-06T15:17:00.600Z,87.80
2022-09-06T15:19:32.202Z,87.80
2022-09-06T15:22:01.846Z,87.70
2022-09-06T15:24:31.360Z,87.80
2022-09-06T15:27:01.622Z,87.90
2022-09-06T15:29:30.989Z,88.00
2022-09-06T15:32:01.589Z,88.00
2022-09-06T15:34:30.941Z,88.40
2022-09-06T15:37:00.231Z,88.30
2022-09-06T15:39:29.620Z,88.40
2022-09-06T15:41:59.221Z,88.60
2022-09-06T15:44:28.614Z,88.80
2022-09-06T15:47:00.268Z,88.90
2022-09-06T15:49:37.458Z,89.00
2022-09-06T15:52:08.521Z,89.10
2022-09-06T15:54:56.070Z,89.40
2022-09-06T15:57:25.525Z,89.40
2022-09-06T15:59:54.843Z,89.50
2022-09-06T16:02:24.406Z,89.60
2022-09-06T16:04:53.732Z,89.70
2022-09-06T16:07:23.089Z,90.00
2022-09-06T16:09:52.409Z,90.00
2022-09-06T16:12:21.997Z,90.10
2022-09-06T16:14:51.288Z,90.30
2022-09-06T16:17:20.312Z,90.30
2022-09-06T16:19:49.386Z,90.40
2022-09-06T16:22:18.409Z,90.40
2022-09-06T16:24:47.445Z,90.50
2022-09-06T16:27:16.467Z,90.60
2022-09-06T16:29:46.333Z,90.70
2022-09-06T16:32:15.461Z,90.80
2022-09-06T16:34:44.627Z,90.90
2022-09-06T16:37:13.749Z,90.90
2022-09-06T16:39:43.226Z,90.90
2022-09-06T16:42:13.649Z,91.00
2022-09-06T16:44:42.726Z,91.10
2022-09-06T16:47:14.786Z,91.10
2022-09-06T16:49:45.465Z,91.20
2022-09-06T16:52:15.387Z,92.20
2022-09-06T16:54:44.380Z,91.50
2022-09-06T16:57:13.596Z,91.40
2022-09-06T16:59:42.928Z,91.40
2022-09-06T17:02:12.038Z,91.40
2022-09-06T17:04:41.435Z,91.50
2022-09-06T17:07:10.628Z,91.50
2022-09-06T17:09:39.834Z,91.50
2022-09-06T17:12:09.048Z,91.60
2022-09-06T17:14:38.152Z,91.60
2022-09-06T17:17:07.956Z,91.70
2022-09-06T17:19:38.613Z,91.70
2022-09-06T17:22:07.988Z,91.80
2022-09-06T17:24:37.958Z,91.90
2022-09-06T17:27:08.349Z,91.80
2022-09-06T17:29:37.775Z,91.80
2022-09-06T17:32:11.096Z,91.80
2022-09-06T17:34:41.678Z,91.90
2022-09-06T17:37:11.012Z,91.90
2022-09-06T17:39:41.405Z,92.00
2022-09-06T17:42:10.682Z,92.00
2022-09-06T17:44:39.711Z,92.00
2022-09-06T17:47:13.061Z,92.10
2022-09-06T17:49:43.612Z,92.10
2022-09-06T17:52:13.215Z,92.20
2022-09-06T17:54:42.296Z,92.30
2022-09-06T17:57:11.332Z,92.40
2022-09-06T17:59:40.583Z,93.00
2022-09-06T18:02:09.997Z,92.80
2022-09-06T18:04:39.178Z,92.80
2022-09-06T18:07:08.407Z,93.60
2022-09-06T18:09:38.113Z,93.30
2022-09-06T18:12:08.029Z,94.70
2022-09-06T18:14:37.978Z,96.00
2022-09-06T18:17:09.485Z,96.60
2022-09-06T18:19:39.611Z,98.20
2022-09-06T18:22:09.179Z,96.90
2022-09-06T18:24:38.458Z,96.40
2022-09-06T18:27:07.905Z,95.70
2022-09-06T18:29:37.183Z,95.40
2022-09-06T18:32:08.598Z,95.40
2022-09-06T18:34:37.918Z,95.30
2022-09-06T18:37:07.308Z,97.40
2022-09-06T18:39:36.633Z,97.20
2022-09-06T18:42:12.110Z,97.10
2022-09-06T18:44:41.719Z,98.30
2022-09-06T18:47:13.367Z,98.50
2022-09-06T18:49:44.350Z,98.20
2022-09-06T18:52:13.812Z,97.40
2022-09-06T18:54:44.807Z,96.70
2022-09-06T18:57:15.712Z,96.20
2022-09-06T18:59:45.395Z,95.80
2022-09-06T19:02:14.862Z,95.60
2022-09-06T19:04:44.186Z,95.30
2022-09-06T19:07:13.488Z,95.20
2022-09-06T19:09:42.783Z,95.00
2022-09-06T19:12:13.039Z,94.90
2022-09-06T19:14:42.381Z,94.90
2022-09-06T19:17:11.671Z,94.80
2022-09-06T19:19:40.957Z,94.60
2022-09-06T19:22:10.453Z,94.80
2022-09-06T19:24:40.638Z,95.00
2022-09-06T19:27:09.903Z,94.90
2022-09-06T19:29:40.224Z,94.80
2022-09-06T19:32:10.182Z,94.80
2022-09-06T19:34:39.858Z,94.80
2022-09-06T19:37:09.619Z,94.90
2022-09-06T19:39:39.031Z,95.00
2022-09-06T19:42:08.607Z,95.10
2022-09-06T19:44:38.017Z,95.10
2022-09-06T19:47:07.466Z,95.10
2022-09-06T19:49:36.837Z,95.20
2022-09-06T19:52:10.629Z,95.30
2022-09-06T19:54:40.826Z,95.50
2022-09-06T19:57:10.084Z,95.20
2022-09-06T19:59:40.492Z,95.30
2022-09-06T20:02:10.623Z,95.30
2022-09-06T20:04:39.996Z,95.50
2022-09-06T20:07:09.315Z,95.60
2022-09-06T20:09:38.584Z,95.60
2022-09-06T20:12:08.827Z,95.60
2022-09-06T20:14:37.880Z,95.50
2022-09-06T20:17:32.179Z,95.40
2022-09-06T20:19:56.028Z,95.40
2022-09-06T20:22:25.302Z,95.40
2022-09-06T20:24:54.419Z,95.40
2022-09-06T20:27:23.772Z,95.40
2022-09-06T20:29:52.782Z,95.50
2022-09-06T20:32:22.017Z,95.50
2022-09-06T20:34:51.039Z,95.50
2022-09-06T20:37:20.072Z,95.60
2022-09-06T20:39:49.685Z,95.70
2022-09-06T20:42:18.765Z,95.70
2022-09-06T20:44:47.785Z,95.90
2022-09-06T20:47:16.945Z,95.80
2022-09-06T20:49:46.032Z,95.80
2022-09-06T20:52:15.330Z,95.70
2022-09-06T20:54:52.215Z,95.70
2022-09-06T20:57:21.578Z,95.70
2022-09-06T20:59:50.893Z,95.80
2022-09-06T21:02:20.215Z,95.80
2022-09-06T21:04:51.614Z,96.00
2022-09-06T21:07:20.874Z,95.90
2022-09-06T21:09:50.233Z,96.00
2022-09-06T21:12:19.566Z,96.00
2022-09-06T21:14:49.500Z,96.00
2022-09-06T21:17:18.793Z,96.00
2022-09-06T21:19:48.108Z,95.70
2022-09-06T21:22:19.279Z,96.00
2022-09-06T21:24:51.324Z,96.00
2022-09-06T21:27:20.849Z,96.00
2022-09-06T21:29:50.086Z,96.00
2022-09-06T21:32:19.340Z,96.00
2022-09-06T21:34:48.617Z,96.00
2022-09-06T21:37:17.963Z,96.00
2022-09-06T21:39:47.237Z,95.90
2022-09-06T21:42:16.533Z,96.00
2022-09-06T21:44:45.792Z,96.10
2022-09-06T21:47:15.704Z,96.10
2022-09-06T21:49:44.964Z,96.20
2022-09-06T21:52:14.310Z,96.00
2022-09-06T21:54:50.496Z,96.10
2022-09-06T21:57:20.651Z,96.10
2022-09-06T21:59:49.908Z,96.10
2022-09-06T22:02:19.277Z,96.10
2022-09-06T22:04:48.676Z,96.10
2022-09-06T22:07:18.020Z,96.10
2022-09-06T22:09:47.329Z,96.20
2022-09-06T22:12:16.767Z,96.20
2022-09-06T22:14:48.131Z,96.30
2022-09-06T22:17:17.423Z,96.40
2022-09-06T22:19:46.826Z,96.40
2022-09-06T22:22:16.110Z,96.50
2022-09-06T22:24:45.568Z,96.50
2022-09-06T22:27:14.951Z,96.50
2022-09-06T22:29:44.219Z,96.60
2022-09-06T22:32:13.837Z,96.70
2022-09-06T22:34:43.691Z,96.70
2022-09-06T22:37:13.175Z,96.90
2022-09-06T22:39:43.250Z,96.80
2022-09-06T22:42:12.561Z,96.80
2022-09-06T22:44:41.860Z,96.90
2022-09-06T22:47:14.228Z,97.00
2022-09-06T22:49:43.506Z,97.10
2022-09-06T22:52:13.811Z,97.30
2022-09-06T22:54:43.148Z,97.40
2022-09-06T22:57:12.546Z,97.40
2022-09-06T22:59:41.894Z,97.40
2022-09-06T23:02:11.179Z,97.30
2022-09-06T23:04:40.507Z,97.30
2022-09-06T23:07:10.055Z,97.30
2022-09-06T23:09:39.498Z,97.40
2022-09-06T23:12:08.943Z,97.50
2022-09-06T23:14:38.341Z,97.30
2022-09-06T23:17:09.702Z,97.30
2022-09-06T23:19:39.051Z,97.50
2022-09-06T23:22:08.669Z,97.50
2022-09-06T23:24:37.964Z,97.50
2022-09-06T23:27:07.343Z,97.30
2022-09-06T23:29:36.780Z,97.40
2022-09-06T23:32:06.089Z,97.30
2022-09-06T23:34:35.867Z,97.20
2022-09-06T23:37:05.886Z,97.20
2022-09-06T23:39:35.346Z,97.10
2022-09-06T23:42:57.569Z,97.20
2022-09-06T23:45:27.279Z,97.50
2022-09-06T23:47:56.585Z,97.50
2022-09-06T23:50:26.271Z,97.50
2022-09-06T23:52:55.574Z,97.30
2022-09-06T23:55:25.198Z,97.20
2022-09-06T23:57:54.529Z,97.10
